• Join FlightAware (Why Join?)
  • Login
  • US Flag 
12:34PM EDT


 

Airport Tracker/Info


-or-


 

Live Flight TrackerFlight Track Log ✈ AWE3327 ✈ 07-May-2013 ✈ KDCA - KMCI

Flight Track Log - Related Links

Times and Time Zones

All times are in EDT time to prevent confusion due to time zone crossing. See the AWE3327 flight status page for this flight to view local times or setup timezone preferences in your user account.

Time Position Orientation Groundspeed Altitude Reporting Facility
EDT Latitude Longitude Course Direction KTS MPH feet Rate Location/Type
09:16AM 38.8833 -77.0667 270° West 169 194 1,600  Level Potomac TRACON
09:17AM 38.8500 -77.4074 270° West  Level FlightAware Approximate
09:17AM 38.9333 -77.1167 322° Northwest 254 292 3,500  Level Potomac TRACON
09:18AM 38.8500 -77.5321 270° West  Level FlightAware Approximate
09:18AM 38.9667 -77.2167 293° West 293 337 6,500  Level Potomac TRACON
09:19AM 38.8501 -77.6568 270° West  Level FlightAware Approximate
09:20AM 38.8500 -77.7815 270° West  Level FlightAware Approximate
09:20AM 38.9492 -77.4386 264° West 308 354 12,400  Level Washington Center
09:21AM 38.8501 -77.9062 270° West  Level FlightAware Approximate
09:21AM 38.9389 -77.5664 264° West 313 360 15,200  Level Washington Center
09:22AM 38.9411 -77.6761 272° West 334 384 17,000 900 Climbing Washington Center
09:23AM 38.8811 -77.7731 232° Southwest 310 357 17,000  Level Washington Center
09:24AM 38.8031 -77.8239 207° Southwest 297 342 17,000  Level Washington Center
09:25AM 38.7864 -77.9325 259° West 286 329 17,000  Level Washington Center
09:26AM 38.8172 -78.0614 287° West 310 357 17,000  Level Washington Center
09:27AM 38.8497 -78.1958 287° West 366 421 17,000  Level Washington Center
09:28AM 38.8550 -78.3347 273° West 382 440 17,000 300 Level Washington Center
09:29AM 38.8517 -78.4786 268° West 398 458 17,700 780 Climbing Washington Center
09:30AM 38.8503 -78.6250 269° West 403 464 18,600 1,320 Climbing Washington Center
09:31AM 38.8483 -78.7717 269° West 409 471 20,400 1,680 Climbing Washington Center
09:32AM 38.8464 -78.9233 269° West 420 483 22,000 780 Climbing Washington Center
09:33AM 38.8442 -79.0781 269° West 425 489 22,000 540 Level Washington Center
09:34AM 38.8436 -79.2378 270° West 431 496 23,100 1,260 Climbing Washington Center
09:35AM 38.8408 -79.3922 269° West 437 503 24,600 1,380 Climbing Washington Center
09:36AM 38.8356 -79.5547 268° West 443 510 25,900 1,140 Climbing Washington Center
09:37AM 38.8317 -79.7303 268° West 470 541 27,000 1,020 Climbing Washington Center
09:38AM 38.8256 -79.9033 267° West 481 554 28,000 900 Climbing Washington Center
09:39AM 38.8217 -80.0708 268° West 481 554 28,900 840 Climbing Washington Center
09:40AM 38.8156 -80.2278 267° West 481 554 29,700 840 Climbing Washington Center
09:40AM 38.8144 -80.2844 269° West 489 563 30,100 1,140 Climbing Indianapolis Center
09:41AM 38.8108 -80.4592 269° West 490 564 31,300 1,080 Climbing Indianapolis Center
09:42AM 38.8067 -80.6319 268° West 486 559 32,400 960 Climbing Indianapolis Center
09:43AM 38.7981 -80.8381 267° West 485 558 33,300 900 Climbing Indianapolis Center
09:44AM 38.7925 -81.0114 268° West 486 559 34,300 780 Climbing Indianapolis Center
09:45AM 38.7864 -81.1828 267° West 482 555 35,000 300 Climbing Indianapolis Center
09:46AM 38.7811 -81.3525 268° West 481 554 35,000  Level Indianapolis Center
09:47AM 38.7747 -81.5478 268° West 486 559 35,000 120 Level Indianapolis Center
09:48AM 38.7681 -81.7217 267° West 486 559 35,300 420 Climbing Indianapolis Center
09:49AM 38.7608 -81.8906 267° West 479 551 35,900 300 Climbing Indianapolis Center
09:51AM 38.7528 -82.0597 267° West 477 549 36,000  Climbing Indianapolis Center
09:52AM 38.7469 -82.2300 268° West 480 552 36,000  Level Indianapolis Center
09:53AM 38.7406 -82.3994 267° West 478 550 36,000  Level Indianapolis Center
09:54AM 38.7328 -82.6036 267° West 479 551 36,000  Level Indianapolis Center
09:55AM 38.7253 -82.7744 267° West 479 551 36,000  Level Indianapolis Center
09:56AM 38.7172 -82.9408 267° West 473 544 36,000  Level Indianapolis Center
09:57AM 38.7097 -83.1092 267° West 473 544 36,000  Level Indianapolis Center
09:58AM 38.7028 -83.2764 267° West 474 545 36,000  Level Indianapolis Center
09:59AM 38.6936 -83.4472 266° West 476 548 36,000  Level Indianapolis Center
10:00AM 38.6839 -83.6442 266° West 472 543 36,000  Level Indianapolis Center
10:01AM 38.6994 -83.8108 277° West 468 539 36,000  Level Indianapolis Center
10:02AM 38.7244 -83.9786 281° West 473 544 36,000  Level Indianapolis Center
10:03AM 38.7481 -84.1442 280° West 469 540 36,000  Level Indianapolis Center
10:04AM 38.7725 -84.3094 281° West 467 537 36,000  Level Indianapolis Center
10:05AM 38.7969 -84.4750 281° West 469 540 36,000  Level Indianapolis Center
10:06AM 38.8494 -84.6378 293° West 464 534 36,000  Level Indianapolis Center
10:07AM 38.8983 -84.7944 292° West 471 542 36,000  Level Indianapolis Center
10:08AM 38.9547 -84.9697 293° West 471 542 36,000  Level Indianapolis Center
10:09AM 39.0036 -85.1236 292° West 466 536 36,000  Level Indianapolis Center
10:10AM 39.0497 -85.2783 291° West 464 534 36,000  Level Indianapolis Center
10:11AM 39.0711 -85.4408 280° West 462 532 36,000  Level Indianapolis Center
10:12AM 39.0908 -85.6072 279° West 467 537 36,000  Level Indianapolis Center
10:13AM 39.1103 -85.7744 279° West 472 543 36,000  Level Indianapolis Center
10:14AM 39.1328 -85.9767 278° West 476 548 36,000  Level Indianapolis Center
10:15AM 39.1497 -86.1450 277° West 475 547 36,000  Level Indianapolis Center
10:16AM 39.1689 -86.3131 278° West 474 545 36,000  Level Indianapolis Center
10:17AM 39.1864 -86.4814 278° West 475 547 36,000  Level Indianapolis Center
10:18AM 39.2036 -86.6483 278° West 472 543 36,000  Level Indianapolis Center
10:19AM 39.2203 -86.8144 277° West 469 540 36,000  Level Indianapolis Center
10:21AM 39.2408 -87.0122 278° West 466 536 36,000  Level Indianapolis Center
10:22AM 39.2572 -87.1761 277° West 463 533 36,000  Level Indianapolis Center
10:23AM 39.2722 -87.3386 277° West 459 528 36,000  Level Indianapolis Center
10:24AM 39.2889 -87.5000 278° West 456 525 36,000  Level Indianapolis Center
10:25AM 39.3033 -87.6608 277° West 453 521 36,000  Level Indianapolis Center
10:26AM 39.3178 -87.8244 277° West 456 525 36,000  Level Indianapolis Center
10:27AM 39.3331 -87.9881 277° West 459 528 36,000  Level Indianapolis Center
10:28AM 39.3506 -88.1817 277° West 454 522 36,000  Level Indianapolis Center
10:29AM 39.3642 -88.3439 276° West 455 524 36,000  Level Indianapolis Center
10:30AM 39.3797 -88.5033 277° West 451 519 36,000  Level Indianapolis Center
10:31AM 39.3950 -88.6639 277° West 450 518 36,000  Level Indianapolis Center
10:32AM 39.4075 -88.8572 275° West 455 524 36,000  Level Kansas City Center
10:33AM 39.4222 -89.0089 277° West 457 526 36,000  Level Kansas City Center
10:34AM 39.4342 -89.1722 275° West 457 526 36,000  Level Kansas City Center
10:35AM 39.4489 -89.3419 276° West 453 521 36,000  Level Kansas City Center
10:36AM 39.4608 -89.5017 276° West 451 519 36,000  Level Kansas City Center
10:37AM 39.4728 -89.6633 276° West 453 521 36,000  Level Kansas City Center
10:38AM 39.4878 -89.8553 276° West 451 519 36,000  Level Kansas City Center
10:39AM 39.4997 -90.0133 276° West 447 514 36,000  Level Kansas City Center
10:40AM 39.5117 -90.1736 276° West 448 516 36,000  Level Kansas City Center
10:41AM 39.5233 -90.3319 276° West 448 516 36,000  Level Kansas City Center
10:42AM 39.5336 -90.4900 275° West 446 513 36,000  Level Kansas City Center
10:43AM 39.5464 -90.6819 275° West 447 514 36,000  Level Kansas City Center
10:44AM 39.5564 -90.8403 275° West 447 514 36,000  Level Kansas City Center
10:45AM 39.5669 -90.9939 275° West 438 504 36,000  Level Kansas City Center
10:46AM 39.5783 -91.1508 275° West 438 504 36,000  Level Kansas City Center
10:47AM 39.5881 -91.3089 275° West 439 505 36,000  Level Kansas City Center
10:48AM 39.5972 -91.4672 274° West 441 507 36,000  Level Kansas City Center
10:50AM 39.6078 -91.6533 274° West 438 504 36,000  Level Kansas City Center
10:51AM 39.6172 -91.8083 275° West 435 501 36,000  Level Kansas City Center
10:52AM 39.6261 -91.9650 274° West 436 502 36,000  Level Kansas City Center
10:53AM 39.6344 -92.1219 274° West 437 503 36,000  Level Kansas City Center
10:54AM 39.6433 -92.2772 274° West 434 499 36,000 -60 Level Kansas City Center
10:55AM 39.6525 -92.4639 274° West 434 499 35,900 -1,320 Descending Kansas City Center
10:56AM 39.6533 -92.6197 270° West 433 498 33,400 -2,520 Descending Kansas City Center
10:57AM 39.6506 -92.7756 269° West 433 498 30,800 -2,580 Descending Kansas City Center
10:58AM 39.6478 -92.9331 269° West 437 503 28,100 -2,640 Descending Kansas City Center
10:59AM 39.6461 -93.0886 269° West 434 499 25,400 -2,520 Descending Kansas City Center
11:00AM 39.6442 -93.2392 269° West 424 488 22,900 -2,640 Descending Kansas City Center
11:01AM 39.6406 -93.4067 268° West 395 455 20,000 -2,520 Descending Kansas City Center
11:02AM 39.6381 -93.5464 269° West 390 449 17,800 -2,280 Descending Kansas City Center
11:03AM 39.6356 -93.6822 269° West 380 437 15,300 -2,340 Descending Kansas City Center
11:04AM 39.6322 -93.8225 268° West 366 421 13,000 -1,920 Descending Kansas City Center
11:05AM 39.6039 -93.9286 251° West 324 373 11,400 -1,320 Descending Kansas City Center
11:06AM 39.5531 -94.0294 237° Southwest 299 344 10,300 -1,020 Descending Kansas City Center
11:07AM 39.5217 -94.1189 246° West 284 327 9,400 -1,020 Descending Kansas City Center
11:08AM 39.4992 -94.2267 255° West 277 319 8,200 -1,500 Descending Kansas City Center
11:09AM 39.4792 -94.3167 254° West 271 312 6,400 -1,080 Descending Kansas City Center
11:10AM 39.4578 -94.4217 255° West 270 311 6,000 -480 Descending Kansas City Center
11:11AM 39.4392 -94.5108 255° West 265 305 5,500 -1,080 Descending Kansas City Center
11:12AM 39.4178 -94.6108 255° West 263 303 3,800 -1,380 Descending Kansas City Center
11:13AM 39.3972 -94.6914 252° West 248 285 2,700 -1,140 Descending Kansas City Center
11:14AM 39.3436 -94.7144 198° South 176 203 1,500 -840 Descending Kansas City Center
11:15AM 39.3069 -94.7253 193° South 133 153 1,000 -480 Descending Kansas City Center
11:17AM 39.2976 -94.7139 285° West  Level Estimated